Airfield :
LOGIN :

Register | Disclaimer

   EN    FR    IT 

 










Legend :    VFR   Marginal VFR   IFR   Intensive IFR   Very Intensive IFR
Visi :
Ceiling :
>= 8 km
>= 3000ft
5 to 8 km
1000 to 3000 ft
1500m to 5 km
500 to 1000 ft
800 to 1500m
200 to 500 ft
< 800m
< 200 ft
Symbols :   Thunderstorms  Fog  Heavy snow  Heavy precipitations  Wind > 20 kt
SIGMETs :     Misc.  Thunderstorms  Icing  Turbulence  Mountain Waves  Volcanic Ashes






- Airport Elevation : 194 ft
- IATA code : LME


LFRM - Le Mans

CURRENT METAR :
  • 220000Z AUTO 28004KT 240V320 9999 -RA OVC030/// ///TCU 07/05 Q0992

EXPIRED METARs :
  • 212330Z AUTO 29005KT 250V330 9999 -RADZ OVC028 07/05 Q0992
  • 212300Z AUTO 29007KT 260V340 9999 FEW018 OVC024 08/05 Q0992
  • 212230Z AUTO 28008KT 220V330 9999 BKN015 OVC022 09/05 Q0991
  • 212200Z AUTO 24013G24KT 200V300 9999 -RADZ BKN019 OVC028 10/07 Q0991
  • 212130Z AUTO 23012KT 200V270 9999 SCT018 SCT037 BKN045 10/08 Q0990
  • 212100Z AUTO 23011G22KT 190V260 9999 -DZ BKN009 OVC016 10/09 Q0990

Expired Forecast.



MET'MAP, your aeronautical weather chart ! - Copyright ORBIFLY December 2007 - Disclaimer

ORBIFLY MET'MAP TEAM :

Programming & Development : Alexandra Zaïnal
Concept & original design : Baudouin d'Aumeries
Assistance for programming : Marc-Olivier Méhu
Technical & hardware support : Manuel Goepfert

Contact : metmap@orbifly.com




SOURCES & CREDITS :

   NOAA